createdAt,value
2023-05-05T00:01:22.175Z,7.11
2023-05-05T00:03:53.985Z,7.14
2023-05-05T00:06:25.732Z,7.19
2023-05-05T00:08:57.478Z,7.20
2023-05-05T00:11:29.342Z,7.21
2023-05-05T00:14:02.053Z,7.21
2023-05-05T00:16:34.237Z,7.16
2023-05-05T00:19:06.695Z,7.18
2023-05-05T00:21:38.467Z,7.16
2023-05-05T00:24:10.922Z,7.15
2023-05-05T00:26:42.770Z,7.12
2023-05-05T00:29:14.531Z,7.12
2023-05-05T00:31:46.302Z,7.10
2023-05-05T00:34:18.381Z,7.09
2023-05-05T00:36:50.308Z,7.10
2023-05-05T00:39:22.209Z,7.12
2023-05-05T00:41:54.250Z,7.18
2023-05-05T00:44:40.427Z,7.22
2023-05-05T00:47:12.414Z,7.26
2023-05-05T00:49:45.107Z,7.27
2023-05-05T00:52:17.243Z,7.28
2023-05-05T00:54:49.320Z,7.28
2023-05-05T00:57:21.796Z,7.26
2023-05-05T00:59:53.975Z,7.22
2023-05-05T01:02:25.991Z,7.18
2023-05-05T01:04:59.166Z,7.12
2023-05-05T01:07:37.447Z,7.08
2023-05-05T01:10:20.155Z,7.05
2023-05-05T01:12:59.960Z,7.03
2023-05-05T01:15:35.672Z,7.01
2023-05-05T01:18:16.434Z,6.97
2023-05-05T01:20:49.490Z,7.03
2023-05-05T01:23:33.942Z,7.06
2023-05-05T01:26:25.843Z,7.10
2023-05-05T01:29:08.200Z,7.09
2023-05-05T01:31:53.741Z,7.15
2023-05-05T01:34:29.276Z,7.15
2023-05-05T01:37:08.779Z,7.15
2023-05-05T01:39:41.972Z,7.13
2023-05-05T01:42:15.144Z,7.11
2023-05-05T01:44:49.218Z,7.08
2023-05-05T01:47:22.395Z,7.04
2023-05-05T01:49:54.860Z,7.00
2023-05-05T01:52:27.054Z,6.97
2023-05-05T01:54:59.965Z,6.96
2023-05-05T01:57:33.225Z,6.96
2023-05-05T02:00:06.024Z,6.97
2023-05-05T02:02:48.215Z,7.01
2023-05-05T02:05:22.837Z,7.04
2023-05-05T02:07:53.509Z,7.08
2023-05-05T02:10:25.625Z,7.11
2023-05-05T02:12:57.860Z,7.13
2023-05-05T02:15:33.707Z,7.15
2023-05-05T02:18:08.623Z,7.13
2023-05-05T02:20:43.674Z,7.17
2023-05-05T02:23:17.805Z,7.16
2023-05-05T02:25:53.076Z,7.16
2023-05-05T02:28:30.593Z,7.17
2023-05-05T02:31:03.449Z,7.20
2023-05-05T02:33:36.373Z,7.23
2023-05-05T02:36:15.940Z,7.27
2023-05-05T02:38:56.841Z,7.30
2023-05-05T02:41:31.479Z,7.32
2023-05-05T02:44:05.933Z,7.31
2023-05-05T02:46:40.125Z,7.31
2023-05-05T02:49:11.917Z,7.31
2023-05-05T02:51:43.873Z,7.30
2023-05-05T02:54:22.692Z,7.27
2023-05-05T02:56:56.695Z,7.27
2023-05-05T02:59:34.679Z,7.28
2023-05-05T03:02:15.486Z,7.30
2023-05-05T03:04:50.257Z,7.33
2023-05-05T03:07:25.091Z,7.35
2023-05-05T03:10:07.848Z,7.37
2023-05-05T03:12:46.796Z,7.38
2023-05-05T03:15:26.625Z,7.38
2023-05-05T03:17:59.666Z,7.37
2023-05-05T03:20:32.329Z,7.37
2023-05-05T03:23:08.287Z,7.39
2023-05-05T03:25:47.907Z,7.43
2023-05-05T03:28:26.332Z,7.49
2023-05-05T03:30:58.888Z,7.56
2023-05-05T03:33:31.315Z,7.65
2023-05-05T03:36:04.546Z,7.72
2023-05-05T03:38:36.258Z,7.79
2023-05-05T03:41:10.361Z,7.84
2023-05-05T03:43:42.446Z,7.90
2023-05-05T03:46:14.975Z,7.93
2023-05-05T03:48:48.759Z,7.97
2023-05-05T03:51:21.040Z,8.03
2023-05-05T03:53:52.867Z,8.10
2023-05-05T03:56:24.653Z,8.19
2023-05-05T03:58:56.752Z,8.28
2023-05-05T04:01:29.953Z,8.36
2023-05-05T04:04:02.156Z,8.44
2023-05-05T04:06:34.038Z,8.52
2023-05-05T04:09:06.193Z,8.61
2023-05-05T04:11:38.075Z,8.69
2023-05-05T04:14:10.214Z,8.79
2023-05-05T04:16:43.128Z,8.90
2023-05-05T04:19:15.072Z,9.01
2023-05-05T04:21:47.976Z,9.15
2023-05-05T04:24:23.106Z,9.33
2023-05-05T04:26:55.085Z,9.51
2023-05-05T04:29:26.954Z,9.69
2023-05-05T04:31:58.740Z,9.81
2023-05-05T04:34:31.880Z,9.90
2023-05-05T04:37:04.644Z,9.98
2023-05-05T04:39:36.696Z,10.06
2023-05-05T04:42:08.928Z,10.16
2023-05-05T04:44:41.658Z,10.28
2023-05-05T04:47:14.662Z,10.40
2023-05-05T04:49:46.759Z,10.54
2023-05-05T04:52:18.593Z,10.67
2023-05-05T04:54:50.486Z,10.66
2023-05-05T04:57:22.569Z,10.59
2023-05-05T04:59:54.556Z,10.57
2023-05-05T05:02:27.133Z,10.59
2023-05-05T05:04:58.996Z,10.65
2023-05-05T05:07:30.759Z,10.70
2023-05-05T05:10:02.679Z,10.76
2023-05-05T05:12:34.716Z,10.87
2023-05-05T05:15:08.124Z,11.01
2023-05-05T05:17:40.055Z,11.11
2023-05-05T05:20:14.428Z,11.17
2023-05-05T05:22:44.930Z,11.22
2023-05-05T05:25:17.555Z,11.25
2023-05-05T05:27:58.476Z,11.30
2023-05-05T05:30:41.974Z,11.38
2023-05-05T05:33:14.696Z,11.47
2023-05-05T05:35:46.723Z,11.56
2023-05-05T05:38:18.710Z,11.60
2023-05-05T05:40:50.783Z,11.63
2023-05-05T05:43:22.739Z,11.68
2023-05-05T05:45:55.255Z,11.75
2023-05-05T05:48:28.586Z,11.78
2023-05-05T05:51:02.147Z,11.84
2023-05-05T05:53:34.088Z,11.89
2023-05-05T05:56:06.807Z,11.93
2023-05-05T05:58:39.080Z,12.00
2023-05-05T06:01:11.318Z,12.09
2023-05-05T06:03:43.244Z,12.23
2023-05-05T06:06:15.304Z,12.36
2023-05-05T06:08:47.427Z,12.52
2023-05-05T06:11:19.261Z,12.58
2023-05-05T06:13:51.176Z,12.64
2023-05-05T06:16:23.042Z,12.76
2023-05-05T06:18:55.328Z,12.97
2023-05-05T06:21:27.764Z,13.26
2023-05-05T06:23:59.783Z,13.67
2023-05-05T06:26:32.568Z,14.53
2023-05-05T06:29:04.440Z,15.71
2023-05-05T06:31:36.549Z,16.81
2023-05-05T06:34:08.510Z,17.80
2023-05-05T06:36:40.588Z,18.67
2023-05-05T06:39:13.982Z,19.48
2023-05-05T06:41:47.352Z,20.16
2023-05-05T06:44:19.108Z,20.77
2023-05-05T06:46:51.378Z,21.37
2023-05-05T06:49:23.145Z,21.96
2023-05-05T06:51:54.906Z,22.53
2023-05-05T06:54:26.871Z,22.96
2023-05-05T06:56:59.666Z,23.35
2023-05-05T06:59:31.538Z,23.68
2023-05-05T07:02:03.321Z,23.77
2023-05-05T07:04:35.712Z,23.86
2023-05-05T07:07:07.595Z,24.16
2023-05-05T07:09:39.352Z,24.21
2023-05-05T07:12:11.400Z,24.23
2023-05-05T07:14:43.312Z,24.35
2023-05-05T07:17:15.107Z,24.51
2023-05-05T07:19:46.885Z,24.67
2023-05-05T07:22:18.628Z,24.91
2023-05-05T07:24:53.241Z,24.96
2023-05-05T07:27:25.254Z,24.95
2023-05-05T07:29:57.059Z,25.16
2023-05-05T07:32:29.026Z,25.33
2023-05-05T07:35:00.859Z,25.23
2023-05-05T07:37:32.709Z,25.21
2023-05-05T07:40:04.659Z,25.15
2023-05-05T07:42:36.642Z,25.15
2023-05-05T07:45:10.296Z,25.30
2023-05-05T07:47:42.730Z,25.35
2023-05-05T07:50:14.794Z,25.13
2023-05-05T07:52:51.820Z,24.60
2023-05-05T07:55:28.333Z,24.18
2023-05-05T07:58:00.072Z,23.86
2023-05-05T08:00:32.057Z,23.56
2023-05-05T08:03:03.960Z,23.44
2023-05-05T08:05:36.039Z,23.34
2023-05-05T08:08:08.095Z,23.06
2023-05-05T08:10:39.917Z,22.84
2023-05-05T08:13:11.817Z,22.60
2023-05-05T08:15:45.198Z,22.53
2023-05-05T08:18:17.372Z,22.56
2023-05-05T08:20:49.525Z,22.56
2023-05-05T08:23:21.578Z,22.44
2023-05-05T08:25:53.477Z,22.15
2023-05-05T08:28:25.239Z,21.92
2023-05-05T08:30:57.089Z,21.74
2023-05-05T08:33:28.841Z,21.56
2023-05-05T08:36:00.896Z,21.38
2023-05-05T08:38:32.899Z,21.21
2023-05-05T08:41:04.789Z,21.04
2023-05-05T08:43:36.869Z,20.91
2023-05-05T08:46:09.183Z,20.64
2023-05-05T08:48:42.409Z,20.46
2023-05-05T08:51:17.955Z,20.41
2023-05-05T08:53:58.515Z,20.34
2023-05-05T08:56:34.807Z,20.17
2023-05-05T08:59:06.907Z,20.08
2023-05-05T09:01:38.884Z,20.06
2023-05-05T09:04:11.930Z,20.13
2023-05-05T09:06:44.281Z,20.10
2023-05-05T09:09:16.418Z,20.14
2023-05-05T09:11:48.802Z,20.07
2023-05-05T09:14:20.607Z,20.02
2023-05-05T09:16:52.430Z,20.10
2023-05-05T09:19:24.298Z,20.15
2023-05-05T09:21:56.407Z,20.26
2023-05-05T09:24:28.186Z,20.33
2023-05-05T09:27:01.664Z,20.34
2023-05-05T09:29:33.697Z,20.31
2023-05-05T09:32:08.860Z,20.42
2023-05-05T09:34:41.002Z,20.54
2023-05-05T09:37:12.877Z,20.75
2023-05-05T09:39:56.090Z,20.88
2023-05-05T09:42:28.027Z,20.70
2023-05-05T09:45:00.220Z,20.64
2023-05-05T09:47:38.314Z,20.58
2023-05-05T09:50:14.226Z,20.49
2023-05-05T09:52:46.715Z,20.33
2023-05-05T09:55:19.596Z,20.29
2023-05-05T09:57:51.480Z,20.26
2023-05-05T10:00:23.918Z,20.26
2023-05-05T10:03:05.313Z,20.25
2023-05-05T10:05:50.554Z,20.23
2023-05-05T10:08:23.878Z,20.24
2023-05-05T10:10:57.229Z,20.26
2023-05-05T10:13:29.466Z,20.23
2023-05-05T10:16:02.172Z,20.16
2023-05-05T17:07:53.851Z,12.88
2023-05-05T17:10:22.566Z,12.78
2023-05-05T17:12:50.883Z,12.74
2023-05-05T17:15:18.452Z,12.70
2023-05-05T17:17:46.857Z,12.65
2023-05-05T17:20:15.743Z,12.64
2023-05-05T17:22:45.932Z,12.57
2023-05-05T17:25:14.238Z,12.56
2023-05-05T17:27:42.606Z,12.52
2023-05-05T17:30:12.406Z,12.49
2023-05-05T17:32:40.857Z,12.41
2023-05-05T17:35:10.616Z,12.39
2023-05-05T17:37:39.195Z,12.31
2023-05-05T17:40:09.226Z,12.31
2023-05-05T17:42:37.609Z,12.24
2023-05-05T17:45:08.921Z,12.25
2023-05-05T17:47:37.727Z,12.21
2023-05-05T17:50:10.060Z,12.17
2023-05-05T17:52:39.781Z,12.12
2023-05-05T17:55:09.904Z,12.08
2023-05-05T17:57:38.576Z,12.04
2023-05-05T18:00:09.712Z,11.96
2023-05-05T18:02:41.324Z,11.92
2023-05-05T18:05:10.463Z,11.86
2023-05-05T18:07:39.046Z,11.82
2023-05-05T18:10:09.865Z,11.75
2023-05-05T18:12:38.251Z,11.68
2023-05-05T18:15:09.145Z,11.61
2023-05-05T18:17:37.826Z,11.55
2023-05-05T18:20:09.574Z,11.49
2023-05-05T18:22:37.978Z,11.41
2023-05-05T18:25:09.586Z,11.34
2023-05-05T18:27:38.300Z,11.29
2023-05-05T18:30:08.970Z,11.22
2023-05-05T18:32:37.545Z,11.20
2023-05-05T18:35:08.132Z,11.14
2023-05-05T18:37:36.876Z,11.09
2023-05-05T18:40:09.308Z,11.06
2023-05-05T18:42:37.685Z,11.02
2023-05-05T18:45:07.471Z,11.03
2023-05-05T18:47:38.066Z,11.00
2023-05-05T18:50:09.245Z,10.99
2023-05-05T18:52:37.633Z,10.95
2023-05-05T18:55:06.721Z,10.93
2023-05-05T18:57:35.181Z,10.94
2023-05-05T19:00:04.147Z,10.93
2023-05-05T19:02:32.562Z,10.91
2023-05-05T19:05:01.390Z,10.89
2023-05-05T19:07:35.472Z,10.89
2023-05-05T19:10:06.138Z,10.87
2023-05-05T19:12:34.556Z,10.81
2023-05-05T19:15:02.969Z,10.83
2023-05-05T19:17:30.507Z,10.78
2023-05-05T19:19:58.866Z,10.79
2023-05-05T19:22:26.307Z,10.77
2023-05-05T19:24:54.674Z,10.74
2023-05-05T19:27:23.063Z,10.73
2023-05-05T19:29:51.595Z,10.72
2023-05-05T19:32:20.383Z,10.68
2023-05-05T19:34:49.086Z,10.66
2023-05-05T19:37:17.412Z,10.65
2023-05-05T19:39:45.086Z,10.59
2023-05-05T19:42:13.577Z,10.58
2023-05-05T19:44:41.965Z,10.56
2023-05-05T19:47:10.962Z,10.53
2023-05-05T19:49:39.817Z,10.51
2023-05-05T19:52:08.114Z,10.49
2023-05-05T19:54:36.751Z,10.46
2023-05-05T19:57:06.587Z,10.43
2023-05-05T19:59:34.985Z,10.41
2023-05-05T20:02:03.383Z,10.38
2023-05-05T20:04:31.908Z,10.33
2023-05-05T20:06:59.503Z,10.32
2023-05-05T20:09:27.832Z,10.28
2023-05-05T20:11:55.874Z,10.24
2023-05-05T20:14:24.373Z,10.20
2023-05-05T20:16:52.018Z,10.16
2023-05-05T20:19:20.301Z,10.13
2023-05-05T20:21:47.710Z,10.11
2023-05-05T20:24:16.547Z,10.09
2023-05-05T20:26:44.888Z,10.08
2023-05-05T20:29:14.089Z,10.06
2023-05-05T20:31:42.419Z,10.04
2023-05-05T20:34:10.225Z,10.02
2023-05-05T20:36:38.463Z,9.97
2023-05-05T20:39:07.490Z,9.98
2023-05-05T20:41:37.391Z,9.96
2023-05-05T20:44:06.041Z,9.94
2023-05-05T20:46:34.613Z,9.93
2023-05-05T20:49:02.960Z,9.91
2023-05-05T20:51:33.561Z,9.86
2023-05-05T20:54:02.047Z,9.88
2023-05-05T20:56:29.505Z,9.81
2023-05-05T20:58:57.811Z,9.82
2023-05-05T21:01:25.418Z,9.74
2023-05-05T21:03:53.720Z,9.73
2023-05-05T21:06:22.018Z,9.67
2023-05-05T21:08:50.392Z,9.68
2023-05-05T21:11:17.902Z,9.65
2023-05-05T21:13:46.142Z,9.59
2023-05-05T21:16:14.471Z,9.57
2023-05-05T21:18:46.041Z,9.57
2023-05-05T21:21:14.631Z,9.54
2023-05-05T21:23:42.990Z,9.51
2023-05-05T21:26:10.493Z,9.49
2023-05-05T21:28:38.781Z,9.45
2023-05-05T21:31:21.066Z,9.43
2023-05-05T21:33:50.568Z,9.35
2023-05-05T21:36:18.823Z,9.38
2023-05-05T21:38:47.216Z,9.34
2023-05-05T21:41:14.857Z,9.32
2023-05-05T21:43:43.132Z,9.25
2023-05-05T21:46:11.466Z,9.27
2023-05-05T21:48:40.722Z,9.23
2023-05-05T21:51:09.036Z,9.23
2023-05-05T21:53:37.143Z,9.23
2023-05-05T21:56:07.124Z,9.24
2023-05-05T21:58:35.503Z,9.27
2023-05-05T22:01:03.202Z,9.29
2023-05-05T22:03:31.861Z,9.30
2023-05-05T22:06:00.496Z,9.32
2023-05-05T22:08:27.986Z,9.32
2023-05-05T22:10:56.372Z,9.29
2023-05-05T22:13:23.898Z,9.27
2023-05-05T22:15:52.479Z,9.26
2023-05-05T22:18:20.893Z,9.22
2023-05-05T22:20:49.171Z,9.20
2023-05-05T22:23:18.053Z,9.16
2023-05-05T22:25:46.442Z,9.12
2023-05-05T22:28:14.044Z,9.06
2023-05-05T22:30:42.353Z,8.99
2023-05-05T22:33:10.295Z,8.96
2023-05-05T22:35:38.625Z,8.90
2023-05-05T22:38:06.339Z,8.83
2023-05-05T22:40:34.911Z,8.76
2023-05-05T22:43:03.291Z,8.70
2023-05-05T22:45:30.756Z,8.66
2023-05-05T22:47:59.145Z,8.62
2023-05-05T22:50:27.568Z,8.52
2023-05-05T22:52:54.990Z,8.49
2023-05-05T22:55:24.159Z,8.47
2023-05-05T22:57:52.752Z,8.42
2023-05-05T23:00:21.313Z,8.45
2023-05-05T23:02:49.675Z,8.45
2023-05-05T23:05:17.259Z,8.41
2023-05-05T23:07:45.689Z,8.40
2023-05-05T23:10:13.177Z,8.40
2023-05-05T23:12:41.841Z,8.34
2023-05-05T23:15:11.799Z,8.25
2023-05-05T23:17:40.441Z,8.18
2023-05-05T23:20:11.424Z,8.16
2023-05-05T23:22:39.846Z,8.09
2023-05-05T23:25:08.171Z,7.98
2023-05-05T23:27:37.645Z,7.95
2023-05-05T23:30:08.561Z,7.85
2023-05-05T23:32:38.111Z,7.82
2023-05-05T23:35:09.049Z,7.76
2023-05-05T23:37:37.585Z,7.72
2023-05-05T23:40:06.549Z,7.70
2023-05-05T23:42:35.042Z,7.70
2023-05-05T23:45:02.681Z,7.70
2023-05-05T23:47:31.566Z,7.69
2023-05-05T23:50:00.172Z,7.67
2023-05-05T23:52:28.609Z,7.61
2023-05-05T23:54:56.075Z,7.59
2023-05-05T23:57:24.749Z,7.61
2023-05-05T23:59:53.604Z,7.56
